createdAt,value
2022-08-22T00:03:03.567Z,95287.98
2022-08-22T00:03:16.084Z,95274.03
2022-08-22T00:06:17.380Z,95275.48
2022-08-22T00:09:59.246Z,95270.34
2022-08-22T00:12:40.289Z,95268.24
2022-08-22T00:15:44.497Z,95266.66
2022-08-22T00:19:20.277Z,95263.35
2022-08-22T00:22:10.424Z,95258.05
2022-08-22T00:25:25.431Z,95255.42
2022-08-22T00:28:43.388Z,95255.33
2022-08-22T00:31:50.577Z,95254.09
2022-08-22T00:34:58.965Z,95251.10
2022-08-22T00:38:29.265Z,95248.06
2022-08-22T00:42:00.469Z,95252.91
2022-08-22T00:45:11.295Z,95252.74
2022-08-22T00:48:40.344Z,95252.76
2022-08-22T00:51:56.554Z,95250.92
2022-08-22T00:55:16.181Z,95251.88
2022-08-22T00:58:58.210Z,95258.45
2022-08-22T01:02:49.185Z,95267.71
2022-08-22T01:06:14.144Z,95268.66
2022-08-22T01:09:46.905Z,95268.09
2022-08-22T01:13:02.502Z,95268.52
2022-08-22T01:15:55.757Z,95266.81
2022-08-22T01:19:11.932Z,95270.48
2022-08-22T01:22:29.438Z,95278.43
2022-08-22T01:25:37.363Z,95288.25
2022-08-22T01:28:57.289Z,95289.04
2022-08-22T01:32:15.941Z,95291.56
2022-08-22T01:35:10.186Z,95293.80
2022-08-22T01:38:44.138Z,95292.30
2022-08-22T01:42:11.140Z,95290.42
2022-08-22T01:45:01.499Z,95291.28
2022-08-22T01:48:12.453Z,95293.05
2022-08-22T01:51:30.833Z,95290.16
2022-08-22T01:54:54.086Z,95279.38
2022-08-22T01:58:45.554Z,95272.55
2022-08-22T02:02:29.771Z,95267.23
2022-08-22T02:05:57.522Z,95260.02
2022-08-22T02:09:23.774Z,95266.05
2022-08-22T02:12:41.090Z,95268.60
2022-08-22T02:16:27.412Z,95262.85
2022-08-22T02:19:54.966Z,95257.77
2022-08-22T02:23:26.931Z,95252.10
2022-08-22T02:27:02.581Z,95244.77
2022-08-22T02:30:25.709Z,95243.59
2022-08-22T02:34:09.299Z,95245.23
2022-08-22T02:37:55.364Z,95251.09
2022-08-22T02:42:05.732Z,95251.72
2022-08-22T02:46:03.776Z,95261.05
2022-08-22T02:49:52.391Z,95270.17
2022-08-22T02:53:07.709Z,95279.53
2022-08-22T02:56:18.324Z,95285.24
2022-08-22T03:00:01.586Z,95286.50
2022-08-22T03:03:20.176Z,95278.23
2022-08-22T03:07:08.804Z,95278.00
2022-08-22T03:10:17.605Z,95283.48
2022-08-22T03:14:03.868Z,95283.23
2022-08-22T03:17:07.663Z,95281.73
2022-08-22T03:20:31.008Z,95281.78
2022-08-22T03:23:34.983Z,95282.92
2022-08-22T03:27:32.433Z,95289.79
2022-08-22T03:30:47.927Z,95293.02
2022-08-22T03:34:18.417Z,95293.52
2022-08-22T03:37:26.996Z,95290.16
2022-08-22T03:41:18.144Z,95287.84
2022-08-22T03:44:11.785Z,95287.48
2022-08-22T03:47:19.812Z,95285.27
2022-08-22T03:51:02.697Z,95290.36
2022-08-22T03:54:18.358Z,95291.14
2022-08-22T03:58:28.084Z,95286.60
2022-08-22T04:02:02.784Z,95289.08
2022-08-22T04:05:35.038Z,95292.77
2022-08-22T04:08:50.395Z,95292.98
2022-08-22T04:12:36.975Z,95290.92
2022-08-22T04:16:13.342Z,95295.49
2022-08-22T04:19:17.105Z,95298.34
2022-08-22T04:23:17.254Z,95298.48
2022-08-22T04:26:52.343Z,95291.02
2022-08-22T04:29:52.479Z,95289.08
2022-08-22T04:33:10.477Z,95284.41
2022-08-22T04:36:48.498Z,95281.83
2022-08-22T04:40:53.008Z,95284.46
2022-08-22T04:44:42.072Z,95285.29
2022-08-22T04:47:59.867Z,95288.43
2022-08-22T04:51:02.564Z,95294.18
2022-08-22T04:54:39.201Z,95299.91
2022-08-22T04:58:32.088Z,95299.88
2022-08-22T05:02:18.952Z,95298.91
2022-08-22T05:06:05.554Z,95308.54
2022-08-22T05:09:17.590Z,95316.85
2022-08-22T05:12:32.882Z,95320.88
2022-08-22T05:16:09.193Z,95324.59
2022-08-22T05:19:31.738Z,95335.55
2022-08-22T05:22:35.345Z,95338.33
2022-08-22T05:25:27.931Z,95336.15
2022-08-22T05:28:56.347Z,95334.92
2022-08-22T05:32:23.341Z,95331.37
2022-08-22T05:35:11.796Z,95332.27
2022-08-22T05:38:01.258Z,95332.55
2022-08-22T05:41:50.481Z,95335.91
2022-08-22T05:44:44.209Z,95338.00
2022-08-22T05:48:18.080Z,95337.84
2022-08-22T05:52:00.213Z,95342.63
2022-08-22T05:55:27.376Z,95346.64
2022-08-22T05:58:44.707Z,95343.96
2022-08-22T06:02:17.863Z,95339.33
2022-08-22T06:05:27.865Z,95338.95
2022-08-22T06:08:07.947Z,95343.05
2022-08-22T06:11:33.758Z,95343.42
2022-08-22T06:14:42.175Z,95337.61
2022-08-22T06:17:36.697Z,95337.90
2022-08-22T06:20:59.853Z,95336.38
2022-08-22T06:23:32.909Z,95341.45
2022-08-22T06:26:30.748Z,95339.73
2022-08-22T06:29:06.854Z,95340.77
2022-08-22T06:32:59.132Z,95342.29
2022-08-22T06:36:22.133Z,95348.73
2022-08-22T06:39:43.704Z,95351.16
2022-08-22T06:42:48.723Z,95345.84
2022-08-22T06:46:01.946Z,95351.36
2022-08-22T06:49:28.574Z,95354.43
2022-08-22T06:52:52.702Z,95355.36
2022-08-22T06:56:19.187Z,95358.85
2022-08-22T06:59:32.444Z,95360.38
2022-08-22T07:02:58.652Z,95363.36
2022-08-22T07:06:25.804Z,95364.06
2022-08-22T07:09:44.463Z,95366.01
2022-08-22T07:13:15.350Z,95372.16
2022-08-22T07:17:04.749Z,95373.35
2022-08-22T07:20:48.455Z,95375.49
2022-08-22T07:23:57.789Z,95376.89
2022-08-22T07:27:09.088Z,95375.38
2022-08-22T07:30:13.182Z,95369.15
2022-08-22T07:33:42.385Z,95372.11
2022-08-22T07:36:56.641Z,95373.81
2022-08-22T07:40:12.698Z,95371.35
2022-08-22T07:43:26.194Z,95372.39
2022-08-22T07:46:39.220Z,95369.84
2022-08-22T07:50:17.799Z,95363.05
2022-08-22T07:53:11.923Z,95367.08
2022-08-22T07:56:52.073Z,95373.60
2022-08-22T08:00:11.757Z,95371.88
2022-08-22T08:03:21.397Z,95372.57
2022-08-22T08:06:16.092Z,95373.72
2022-08-22T08:09:41.515Z,95369.36
2022-08-22T08:12:37.458Z,95373.79
2022-08-22T08:15:25.785Z,95368.23
2022-08-22T08:18:53.966Z,95365.61
2022-08-22T08:22:32.486Z,95366.88
2022-08-22T08:25:40.049Z,95366.66
2022-08-22T08:28:36.016Z,95368.51
2022-08-22T08:32:19.756Z,95368.21
2022-08-22T08:36:08.639Z,95365.90
2022-08-22T08:39:39.580Z,95367.56
2022-08-22T08:43:25.590Z,95367.59
2022-08-22T08:46:26.232Z,95368.47
2022-08-22T08:50:13.852Z,95373.16
2022-08-22T08:53:56.764Z,95374.78
2022-08-22T08:57:34.814Z,95378.20
2022-08-22T09:00:49.082Z,95379.17
2022-08-22T09:04:15.148Z,95377.58
2022-08-22T09:07:39.416Z,95373.71
2022-08-22T09:11:14.397Z,95369.31
2022-08-22T09:14:46.093Z,95370.81
2022-08-22T09:17:39.328Z,95370.86
2022-08-22T09:20:53.981Z,95371.55
2022-08-22T09:23:54.961Z,95369.09
2022-08-22T09:30:46.176Z,95368.71
2022-08-22T09:33:45.576Z,95368.92
2022-08-22T09:37:15.011Z,95368.40
2022-08-22T09:41:05.933Z,95368.27
2022-08-22T09:45:04.792Z,95368.59
2022-08-22T09:48:49.581Z,95360.26
2022-08-22T09:51:33.436Z,95357.68
2022-08-22T09:55:07.977Z,95357.06
2022-08-22T09:58:58.081Z,95354.40
2022-08-22T10:02:15.713Z,95355.69
2022-08-22T10:05:41.157Z,95351.85
2022-08-22T10:08:48.033Z,95350.94
2022-08-22T10:12:24.771Z,95346.66
2022-08-22T10:16:14.649Z,95342.69
2022-08-22T10:19:57.180Z,95349.46
2022-08-22T10:23:55.857Z,95352.22
2022-08-22T10:27:57.457Z,95352.31
2022-08-22T10:31:45.119Z,95351.28
2022-08-22T10:35:34.047Z,95349.70
2022-08-22T10:39:33.013Z,95345.90
2022-08-22T10:43:28.596Z,95340.95
2022-08-22T10:47:15.031Z,95339.98
2022-08-22T10:51:03.213Z,95335.46
2022-08-22T10:55:09.915Z,95332.55
2022-08-22T10:58:47.468Z,95332.84
2022-08-22T11:02:44.725Z,95327.97
2022-08-22T11:06:38.727Z,95325.73
2022-08-22T11:10:13.220Z,95325.85
2022-08-22T11:13:46.859Z,95328.13
2022-08-22T11:18:04.497Z,95329.92
2022-08-22T11:22:03.828Z,95326.33
2022-08-22T11:25:56.671Z,95322.46
2022-08-22T11:29:37.368Z,95318.45
2022-08-22T11:33:21.842Z,95319.52
2022-08-22T11:37:11.527Z,95312.14
2022-08-22T11:41:11.534Z,95314.55
2022-08-22T11:45:01.813Z,95304.69
2022-08-22T11:48:54.910Z,95302.11
2022-08-22T11:53:01.668Z,95300.17
2022-08-22T11:57:10.280Z,95293.68
2022-08-22T12:01:02.547Z,95289.59
2022-08-22T12:05:02.720Z,95287.83
2022-08-22T12:08:55.771Z,95281.58
2022-08-22T12:12:51.745Z,95272.30
2022-08-22T12:16:21.878Z,95270.92
2022-08-22T12:20:16.334Z,95272.58
2022-08-22T12:24:11.367Z,95266.20
2022-08-22T12:28:08.066Z,95265.56
2022-08-22T12:32:10.447Z,95267.95
2022-08-22T12:36:03.960Z,95266.76
2022-08-22T12:39:53.629Z,95264.02
2022-08-22T12:43:49.863Z,95263.56
2022-08-22T12:47:46.373Z,95265.20
2022-08-22T12:51:18.190Z,95270.10
2022-08-22T12:55:16.280Z,95273.84
2022-08-22T12:59:04.757Z,95276.14
2022-08-22T13:02:58.352Z,95274.30
2022-08-22T13:06:48.593Z,95279.52
2022-08-22T13:10:36.516Z,95284.88
2022-08-22T13:14:26.003Z,95285.59
2022-08-22T13:18:28.658Z,95285.02
2022-08-22T13:22:18.145Z,95280.27
2022-08-22T13:26:08.491Z,95276.83
2022-08-22T13:30:00.369Z,95272.56
2022-08-22T13:33:50.970Z,95277.92
2022-08-22T13:37:44.734Z,95280.11
2022-08-22T13:41:32.158Z,95284.94
2022-08-22T13:45:21.776Z,95285.82
2022-08-22T13:49:24.168Z,95287.92
2022-08-22T13:53:11.515Z,95292.18
2022-08-22T13:57:01.565Z,95294.85
2022-08-22T14:00:58.102Z,95293.79
2022-08-22T14:04:46.501Z,95296.27
2022-08-22T14:08:33.739Z,95298.33
2022-08-22T14:12:23.547Z,95296.30
2022-08-22T14:16:10.707Z,95298.50
2022-08-22T14:20:11.012Z,95295.02
2022-08-22T14:24:04.579Z,95290.20
2022-08-22T14:27:55.260Z,95290.18
2022-08-22T14:31:54.013Z,95286.83
2022-08-22T14:35:40.952Z,95285.01
2022-08-22T14:39:22.368Z,95278.68
2022-08-22T14:43:09.990Z,95278.50
2022-08-22T14:47:00.297Z,95275.36
2022-08-22T14:50:52.936Z,95277.77
2022-08-22T14:54:42.684Z,95283.52
2022-08-22T14:58:32.710Z,95280.65
2022-08-22T15:02:29.717Z,95283.66
2022-08-22T15:06:21.868Z,95279.04
2022-08-22T15:10:21.562Z,95278.66
2022-08-22T15:14:08.525Z,95282.27
2022-08-22T15:18:12.830Z,95286.08
2022-08-22T15:22:05.180Z,95285.23
2022-08-22T15:25:55.756Z,95295.88
2022-08-22T15:29:43.831Z,95304.11
2022-08-22T15:33:30.808Z,95315.10
2022-08-22T15:37:24.016Z,95317.11
2022-08-22T15:41:23.491Z,95320.45
2022-08-22T15:45:13.140Z,95330.27
2022-08-22T15:48:43.370Z,95338.81
2022-08-22T15:52:42.083Z,95340.50
2022-08-22T15:56:35.120Z,95339.66
2022-08-22T16:00:34.646Z,95338.98
2022-08-22T16:04:33.909Z,95333.84
2022-08-22T16:08:33.159Z,95338.21
2022-08-22T16:12:00.416Z,95350.66
2022-08-22T16:15:49.356Z,95357.62
2022-08-22T16:19:21.349Z,95359.29
2022-08-22T16:22:34.528Z,95367.95
2022-08-22T16:26:24.555Z,95369.08
2022-08-22T16:30:00.348Z,95370.58
2022-08-22T16:33:50.031Z,95382.41
2022-08-22T16:37:18.101Z,95388.97
2022-08-22T16:41:05.027Z,95385.13
2022-08-22T16:44:36.841Z,95380.14
2022-08-22T16:47:58.852Z,95380.35
2022-08-22T16:51:48.199Z,95379.98
2022-08-22T16:55:41.564Z,95376.20
2022-08-22T16:59:43.700Z,95383.02
2022-08-22T17:03:35.955Z,95387.15
2022-08-22T17:07:09.110Z,95388.05
2022-08-22T17:10:39.322Z,95402.02
2022-08-22T17:14:50.782Z,95405.79
2022-08-22T17:18:40.674Z,95404.63
2022-08-22T17:22:15.712Z,95405.48
2022-08-22T17:25:09.858Z,95405.98
2022-08-22T17:27:39.919Z,95409.56
2022-08-22T17:30:23.884Z,95408.86
2022-08-22T17:34:01.248Z,95421.99
2022-08-22T17:36:52.539Z,95430.14
2022-08-22T17:39:30.003Z,95433.25
2022-08-22T17:42:37.551Z,95434.12
2022-08-22T17:45:27.102Z,95439.84
2022-08-22T17:48:04.378Z,95451.33
2022-08-22T17:51:14.070Z,95465.13
2022-08-22T17:54:08.009Z,95479.67
2022-08-22T17:57:06.202Z,95490.23
2022-08-22T18:00:04.055Z,95489.33
2022-08-22T18:02:38.806Z,95486.36
2022-08-22T18:05:28.404Z,95488.45
2022-08-22T18:09:13.349Z,95482.54
2022-08-22T18:11:40.390Z,95475.92
2022-08-22T18:14:19.967Z,95474.44
2022-08-22T18:16:52.152Z,95468.25
2022-08-22T18:19:30.663Z,95462.49
2022-08-22T18:22:25.061Z,95465.20
2022-08-22T18:25:27.686Z,95468.79
2022-08-22T18:28:07.128Z,95464.42
2022-08-22T18:30:50.263Z,95459.25
2022-08-22T18:33:43.355Z,95453.27
2022-08-22T18:36:31.998Z,95452.09
2022-08-22T18:39:18.586Z,95446.46
2022-08-22T18:41:52.839Z,95445.52
2022-08-22T18:44:27.841Z,95446.90
2022-08-22T18:47:01.551Z,95447.30
2022-08-22T18:49:30.308Z,95451.36
2022-08-22T18:52:22.820Z,95451.68
2022-08-22T18:55:21.971Z,95460.20
2022-08-22T18:58:31.207Z,95474.11
2022-08-22T19:01:21.279Z,95481.91
2022-08-22T19:04:21.192Z,95493.23
2022-08-22T19:07:02.847Z,95498.88
2022-08-22T19:10:03.519Z,95499.41
2022-08-22T19:12:54.633Z,95503.20
2022-08-22T19:15:43.233Z,95504.17
2022-08-22T19:18:44.743Z,95504.09
2022-08-22T19:21:38.727Z,95507.11
2022-08-22T19:24:12.996Z,95508.94
2022-08-22T19:26:48.049Z,95513.06
2022-08-22T19:29:16.403Z,95517.93
2022-08-22T19:31:48.333Z,95516.69
2022-08-22T19:34:28.658Z,95517.19
2022-08-22T19:37:31.034Z,95515.77
2022-08-22T19:40:08.373Z,95511.48
2022-08-22T19:42:41.779Z,95512.39
2022-08-22T19:45:39.723Z,95515.14
2022-08-22T19:48:14.237Z,95516.20
2022-08-22T19:50:43.507Z,95524.05
2022-08-22T19:53:48.101Z,95533.40
2022-08-22T19:56:18.977Z,95535.01
2022-08-22T19:58:55.694Z,95534.81
2022-08-22T20:01:37.105Z,95527.08
2022-08-22T20:04:40.795Z,95523.52
2022-08-22T20:07:59.225Z,95524.86
2022-08-22T20:10:50.219Z,95533.52
2022-08-22T20:13:59.858Z,95540.95
2022-08-22T20:17:05.842Z,95548.34
2022-08-22T20:20:34.499Z,95554.35
2022-08-22T20:23:31.515Z,95559.63
2022-08-22T20:26:21.684Z,95562.60
2022-08-22T20:28:51.792Z,95570.18
2022-08-22T20:32:07.917Z,95576.41
2022-08-22T20:35:55.480Z,95578.67
2022-08-22T20:39:48.457Z,95578.45
2022-08-22T20:43:46.359Z,95578.05
2022-08-22T20:47:41.118Z,95581.23
2022-08-22T20:51:29.817Z,95580.23
2022-08-22T20:55:17.431Z,95579.35
2022-08-22T20:59:04.898Z,95583.41
2022-08-22T21:02:52.103Z,95578.47
2022-08-22T21:06:48.470Z,95573.61
2022-08-22T21:10:34.097Z,95581.84
2022-08-22T21:14:21.634Z,95583.96
2022-08-22T21:18:18.203Z,95580.98
2022-08-22T21:22:11.800Z,95578.43
2022-08-22T21:26:07.451Z,95581.35
2022-08-22T21:29:34.977Z,95578.11
2022-08-22T21:32:31.745Z,95575.31
2022-08-22T21:35:18.830Z,95573.86
2022-08-22T21:37:49.047Z,95573.17
2022-08-22T21:41:21.746Z,95570.27
2022-08-22T21:45:20.125Z,95566.16
2022-08-22T21:48:54.835Z,95564.63
2022-08-22T21:52:42.457Z,95563.10
2022-08-22T21:56:29.042Z,95562.23
2022-08-22T21:59:59.363Z,95559.45
2022-08-22T22:03:10.962Z,95553.84
2022-08-22T22:06:22.456Z,95548.17
2022-08-22T22:08:59.753Z,95544.31
2022-08-22T22:11:51.166Z,95542.60
2022-08-22T22:14:44.246Z,95542.45
2022-08-22T22:17:51.699Z,95544.27
2022-08-22T22:20:52.422Z,95543.92
2022-08-22T22:23:46.269Z,95541.56
2022-08-22T22:26:45.535Z,95537.49
2022-08-22T22:29:28.748Z,95534.92
2022-08-22T22:32:24.949Z,95536.77
2022-08-22T22:35:48.163Z,95536.04
2022-08-22T22:39:16.968Z,95535.48
2022-08-22T22:43:05.036Z,95536.92
2022-08-22T22:46:19.801Z,95546.60
2022-08-22T22:50:06.529Z,95551.02
2022-08-22T22:53:53.204Z,95552.02
2022-08-22T22:56:41.064Z,95552.39
2022-08-22T22:59:33.600Z,95545.19
2022-08-22T23:02:47.106Z,95543.88
2022-08-22T23:05:35.408Z,95544.34
2022-08-22T23:08:09.431Z,95542.38
2022-08-22T23:11:38.528Z,95541.85
2022-08-22T23:15:25.155Z,95536.23
2022-08-22T23:18:33.208Z,95535.07
2022-08-22T23:21:51.513Z,95532.40
2022-08-22T23:25:20.181Z,95534.02
2022-08-22T23:27:58.521Z,95535.77
2022-08-22T23:30:55.401Z,95534.64
2022-08-22T23:33:39.525Z,95534.34
2022-08-22T23:36:18.831Z,95536.29
2022-08-22T23:38:51.446Z,95533.80
2022-08-22T23:41:23.220Z,95531.41
2022-08-22T23:44:13.467Z,95524.59
2022-08-22T23:47:03.626Z,95524.80
2022-08-22T23:49:34.569Z,95524.92
2022-08-22T23:52:06.124Z,95528.46
2022-08-22T23:54:42.777Z,95529.14
2022-08-22T23:57:12.087Z,95529.29
2022-08-22T23:59:46.242Z,95526.57
